Time;durP1;ratioP1;P1;durP2;ratioP2;P2;SDS_P1;SDS_P2;PMS_P1;PMS_P2;Temp;Humidity;BMP_temperature;BMP_pressure;BME280_temperature;BME280_humidity;BME280_pressure;Samples;Min_cycle;Max_cycle;Signal;HPM_P1;HPM_P2
2022/09/08 00:02:15;;;;;;;5.90;5.40;;;;;;;16.83;80.71;99771.03;5101623;28;20480;-65
2022/09/08 00:04:42;;;;;;;5.90;4.97;;;;;;;16.81;80.43;99765.00;5111730;28;20448;-65
2022/09/08 00:07:09;;;;;;;5.97;5.47;;;;;;;16.80;80.77;99757.94;5121761;28;20527;-65
2022/09/08 00:09:35;;;;;;;5.70;4.90;;;;;;;16.74;80.51;99754.97;5121146;28;20434;-65
2022/09/08 00:12:03;;;;;;;7.00;5.20;;;;;;;16.70;80.55;99756.41;5113365;28;20480;-65
2022/09/08 00:14:30;;;;;;;6.77;5.30;;;;;;;16.67;80.93;99754.06;5103072;28;20482;-65
2022/09/08 00:16:58;;;;;;;6.70;6.10;;;;;;;16.63;81.89;99746.53;5101498;28;20495;-65
2022/09/08 00:19:25;;;;;;;7.37;6.67;;;;;;;16.63;82.29;99749.25;5081827;28;20490;-65
2022/09/08 00:21:52;;;;;;;9.07;7.13;;;;;;;16.64;82.46;99735.56;5117773;28;20466;-65
2022/09/08 00:24:19;;;;;;;10.20;6.10;;;;;;;16.69;81.99;99733.13;5105779;28;20462;-65
2022/09/08 00:26:45;;;;;;;12.83;7.47;;;;;;;16.69;81.69;99735.81;5101554;28;20502;-65
2022/09/08 00:29:12;;;;;;;8.37;7.57;;;;;;;16.73;81.63;99747.91;5116529;28;20450;-65
2022/09/08 00:31:39;;;;;;;7.97;6.80;;;;;;;16.69;81.83;99746.63;5119848;28;20490;-65
2022/09/08 00:34:10;;;;;;;8.43;7.63;;;;;;;16.74;81.72;99736.06;5102715;28;20856;-64
2022/09/08 00:36:37;;;;;;;9.80;7.20;;;;;;;16.78;81.70;99733.00;5118788;28;20482;-65
2022/09/08 00:39:04;;;;;;;6.90;6.20;;;;;;;16.76;81.51;99731.31;5104226;28;20443;-65
2022/09/08 00:41:31;;;;;;;6.70;6.20;;;;;;;16.75;81.49;99724.25;5115405;28;20474;-65
2022/09/08 00:44:00;;;;;;;6.27;5.53;;;;;;;16.75;81.33;99736.91;5121114;28;20851;-65
2022/09/08 00:46:30;;;;;;;6.07;5.43;;;;;;;16.75;81.51;99721.56;5103055;28;20471;-65
2022/09/08 00:49:03;;;;;;;5.60;5.10;;;;;;;16.76;81.35;99714.28;5080900;28;20447;-65
2022/09/08 00:51:32;;;;;;;7.20;6.13;;;;;;;16.77;81.20;99715.97;5119349;28;20505;-65
2022/09/08 00:53:59;;;;;;;6.13;5.53;;;;;;;16.77;80.93;99702.47;5102037;28;20458;-64
2022/09/08 00:56:26;;;;;;;7.90;5.03;;;;;;;16.68;80.59;99692.81;5104264;28;20489;-64
2022/09/08 00:58:53;;;;;;;5.73;5.13;;;;;;;16.51;80.61;99686.88;5116389;28;20481;-64
2022/09/08 01:01:20;;;;;;;5.37;4.87;;;;;;;16.50;80.10;99690.59;5102539;28;20519;-64
2022/09/08 01:03:47;;;;;;;5.13;4.73;;;;;;;16.48;79.45;99682.69;5121824;28;20434;-64
2022/09/08 01:15:19;;;;;;;7.50;4.90;;;;;;;16.25;80.20;99676.63;5057265;28;21182;-64
2022/09/08 01:17:47;;;;;;;5.87;5.37;;;;;;;16.08;81.28;99676.88;5087394;28;20469;-64
2022/09/08 01:20:14;;;;;;;6.60;6.00;;;;;;;16.05;82.54;99677.25;5102113;28;20540;-64
2022/09/08 01:23:02;;;;;;;5.90;5.40;;;;;;;16.31;81.40;99675.88;5106098;28;20447;-64
2022/09/08 01:25:47;;;;;;;5.93;5.17;;;;;;;16.25;81.94;99671.25;5095787;28;20545;-64
2022/09/08 01:28:18;;;;;;;6.23;5.70;;;;;;;16.19;82.19;99670.16;5109181;28;20442;-64
2022/09/08 01:30:46;;;;;;;5.97;5.37;;;;;;;16.17;82.35;99675.72;5118730;28;20479;-64
2022/09/08 01:33:13;;;;;;;6.40;5.80;;;;;;;16.15;81.82;99666.19;5110775;28;20448;-64
2022/09/08 01:35:41;;;;;;;6.67;6.00;;;;;;;16.14;81.86;99665.34;5106357;28;20493;-64
2022/09/08 01:38:08;;;;;;;6.37;5.77;;;;;;;16.16;81.63;99659.75;5109914;28;20435;-64
2022/09/08 01:40:38;;;;;;;6.20;5.60;;;;;;;16.17;82.02;99664.13;5100609;28;20478;-64
2022/09/08 01:43:04;;;;;;;5.73;5.23;;;;;;;16.18;82.25;99663.94;5111875;28;20501;-64
2022/09/08 01:45:32;;;;;;;5.77;5.30;;;;;;;16.19;81.91;99656.66;5105090;28;20491;-64
2022/09/08 01:47:59;;;;;;;6.80;5.60;;;;;;;16.24;81.96;99650.72;5117877;28;20438;-65
2022/09/08 01:50:26;;;;;;;7.10;5.50;;;;;;;16.22;81.43;99653.59;5107881;28;20496;-64
2022/09/08 01:52:52;;;;;;;6.87;6.30;;;;;;;16.24;81.42;99648.00;5112993;28;20449;-65
2022/09/08 01:55:19;;;;;;;5.63;5.17;;;;;;;16.26;81.51;99645.94;5113149;28;20480;-64
2022/09/08 01:57:46;;;;;;;6.30;5.70;;;;;;;16.26;80.96;99641.38;5118648;28;20442;-65
2022/09/08 02:00:13;;;;;;;6.57;6.07;;;;;;;16.26;81.23;99641.38;5116042;28;20451;-64
2022/09/08 02:02:41;;;;;;;6.83;6.13;;;;;;;16.18;80.96;99639.66;5102756;28;20447;-65
2022/09/08 02:05:09;;;;;;;5.60;4.77;;;;;;;16.22;81.08;99639.28;5100079;28;20466;-64
2022/09/08 02:07:37;;;;;;;6.13;5.60;;;;;;;16.28;80.45;99633.91;5110372;28;20822;-65
2022/09/08 02:10:04;;;;;;;5.83;5.33;;;;;;;16.41;80.07;99640.50;5103507;28;20439;-65
2022/09/08 02:12:31;;;;;;;6.23;5.40;;;;;;;16.53;79.79;99641.63;5100354;28;20509;-64
2022/09/08 02:14:57;;;;;;;5.67;5.17;;;;;;;16.47;80.41;99647.81;5103934;28;20562;-65
2022/09/08 02:17:24;;;;;;;6.00;5.47;;;;;;;16.40;80.32;99644.22;5120688;28;20512;-65
2022/09/08 02:19:52;;;;;;;8.27;6.43;;;;;;;16.36;80.83;99644.59;5122910;28;20471;-64
2022/09/08 02:22:19;;;;;;;7.07;5.83;;;;;;;16.35;81.01;99636.69;5122116;28;20466;-64
2022/09/08 02:24:46;;;;;;;6.90;5.97;;;;;;;16.39;81.17;99629.91;5111445;28;20482;-64
2022/09/08 02:27:13;;;;;;;7.17;6.47;;;;;;;16.32;81.29;99626.31;5104733;28;20474;-65
2022/09/08 02:29:39;;;;;;;9.43;5.47;;;;;;;16.16;81.88;99620.13;5123364;28;20474;-64
2022/09/08 02:32:06;;;;;;;6.67;6.07;;;;;;;16.26;81.72;99618.97;5113391;28;20479;-64
2022/09/08 02:34:33;;;;;;;5.80;5.20;;;;;;;16.34;81.45;99627.78;5113116;28;20463;-64
2022/09/08 02:37:01;;;;;;;6.20;5.60;;;;;;;16.42;81.11;99626.78;5105723;28;20514;-64
2022/09/08 02:39:28;;;;;;;8.53;6.70;;;;;;;16.46;80.92;99628.09;5104982;28;20853;-64
2022/09/08 02:41:55;;;;;;;9.97;6.07;;;;;;;16.37;81.30;99631.97;5107293;28;20498;-64
2022/09/08 02:44:22;;;;;;;6.83;6.23;;;;;;;16.10;82.99;99630.84;5123565;28;20485;-64
2022/09/08 02:46:48;;;;;;;7.67;6.53;;;;;;;16.04;84.09;99634.31;5116127;28;20476;-64
2022/09/08 02:49:15;;;;;;;6.60;6.10;;;;;;;16.19;83.39;99632.41;5104599;28;20464;-64
2022/09/08 02:51:41;;;;;;;8.70;7.27;;;;;;;16.28;83.46;99633.91;5112546;28;20470;-64
2022/09/08 02:54:09;;;;;;;7.20;6.50;;;;;;;16.37;82.88;99627.38;5108719;28;20471;-64
2022/09/08 02:56:36;;;;;;;8.43;6.83;;;;;;;16.44;82.53;99613.97;5118101;28;20537;-64
2022/09/08 02:59:03;;;;;;;7.73;7.10;;;;;;;16.48;82.59;99623.31;5103136;28;20507;-64
2022/09/08 03:01:29;;;;;;;8.07;6.77;;;;;;;16.54;82.07;99610.91;5117347;28;20501;-64
2022/09/08 03:03:56;;;;;;;7.67;6.73;;;;;;;16.51;81.82;99608.63;5124064;28;20434;-64
2022/09/08 03:06:23;;;;;;;7.77;6.80;;;;;;;16.48;81.46;99609.00;5113539;28;20722;-64
2022/09/08 03:08:50;;;;;;;7.03;6.43;;;;;;;16.39;81.18;99605.63;5103796;28;20446;-64
2022/09/08 03:11:18;;;;;;;7.57;6.77;;;;;;;16.30;80.73;99601.38;5102534;28;20471;-64
2022/09/08 03:13:44;;;;;;;8.23;6.40;;;;;;;16.31;80.61;99593.09;5104184;28;20488;-64
2022/09/08 03:16:11;;;;;;;7.20;6.07;;;;;;;16.17;81.27;99583.22;5101919;28;20471;-64
2022/09/08 03:18:38;;;;;;;6.83;6.23;;;;;;;16.15;81.44;99580.72;5119864;28;20501;-64
2022/09/08 03:21:08;;;;;;;6.10;5.60;;;;;;;16.04;81.35;99570.44;5082076;28;20468;-64
2022/09/08 03:23:35;;;;;;;7.70;6.90;;;;;;;16.29;80.62;99570.88;5101248;28;20950;-64
2022/09/08 03:26:03;;;;;;;7.30;6.70;;;;;;;16.34;80.04;99565.72;5103297;28;20497;-65
2022/09/08 03:28:32;;;;;;;7.43;6.50;;;;;;;16.31;80.36;99567.97;5122507;28;20473;-64
2022/09/08 03:30:59;;;;;;;7.47;6.00;;;;;;;16.27;80.34;99562.16;5122691;28;20509;-65
2022/09/08 03:33:25;;;;;;;9.30;7.00;;;;;;;16.28;80.70;99560.28;5104018;28;20447;-65
2022/09/08 03:35:52;;;;;;;7.07;6.47;;;;;;;16.29;80.72;99552.00;5102494;28;20491;-65
2022/09/08 03:38:19;;;;;;;7.60;5.63;;;;;;;16.29;80.84;99561.94;5104465;28;20440;-65
2022/09/08 03:40:45;;;;;;;6.67;6.07;;;;;;;16.31;80.76;99559.88;5114795;28;20523;-65
2022/09/08 03:43:13;;;;;;;6.57;5.80;;;;;;;16.29;80.88;99559.25;5122027;28;20518;-65
2022/09/08 03:45:44;;;;;;;7.43;6.60;;;;;;;16.28;81.30;99558.41;5119334;28;20507;-65
2022/09/08 03:48:11;;;;;;;6.90;6.30;;;;;;;16.30;81.32;99545.56;5106318;28;20443;-65
2022/09/08 03:50:37;;;;;;;9.30;6.87;;;;;;;16.37;81.23;99537.53;5103115;28;20487;-65
2022/09/08 03:53:04;;;;;;;8.77;7.20;;;;;;;16.30;81.23;99532.09;5111438;28;20471;-65
2022/09/08 03:55:31;;;;;;;8.40;7.60;;;;;;;16.31;81.49;99531.03;5108108;28;20486;-65
2022/09/08 03:57:58;;;;;;;8.60;7.80;;;;;;;16.32;81.41;99532.72;5102869;28;20513;-65
2022/09/08 04:00:25;;;;;;;9.90;7.00;;;;;;;16.48;80.73;99523.50;5103047;28;20497;-64
2022/09/08 04:02:53;;;;;;;7.00;6.30;;;;;;;16.53;80.56;99526.44;5111076;28;20460;-65
2022/09/08 04:05:19;;;;;;;6.80;6.20;;;;;;;16.38;81.07;99528.41;5117896;28;20503;-65
2022/09/08 04:07:46;;;;;;;7.67;6.67;;;;;;;16.30;81.77;99523.13;5110960;28;20491;-65
2022/09/08 04:10:13;;;;;;;8.30;6.43;;;;;;;16.32;81.91;99518.41;5105753;28;20477;-65
2022/09/08 04:12:40;;;;;;;7.90;7.20;;;;;;;16.36;81.82;99525.06;5123154;28;20470;-65
2022/09/08 04:15:08;;;;;;;8.23;6.93;;;;;;;16.41;81.91;99525.31;5110097;28;20478;-65
2022/09/08 04:17:36;;;;;;;11.40;8.77;;;;;;;16.44;81.92;99519.53;5102290;28;20453;-65
2022/09/08 04:20:05;;;;;;;8.00;7.20;;;;;;;16.49;82.00;99508.13;5113100;28;20474;-65
2022/09/08 04:22:32;;;;;;;9.47;8.63;;;;;;;16.47;81.50;99502.94;5120821;28;20492;-65
2022/09/08 04:24:59;;;;;;;9.03;8.00;;;;;;;16.53;81.64;99506.72;5111066;28;20470;-65
2022/09/08 04:27:25;;;;;;;8.90;8.00;;;;;;;16.53;81.56;99502.16;5105231;28;20475;-64
2022/09/08 04:29:52;;;;;;;9.23;8.33;;;;;;;16.60;81.02;99509.47;5113232;28;20454;-64
2022/09/08 04:32:19;;;;;;;9.17;8.27;;;;;;;16.56;80.84;99507.16;5107572;28;20551;-68
2022/09/08 04:34:49;;;;;;;8.73;7.80;;;;;;;16.58;80.97;99506.97;5102766;28;20465;-65
2022/09/08 04:37:18;;;;;;;8.53;7.77;;;;;;;16.54;81.28;99500.28;5104110;28;20550;-64
2022/09/08 04:39:44;;;;;;;8.90;8.00;;;;;;;16.54;81.33;99505.66;5104334;28;20481;-62
2022/09/08 04:42:11;;;;;;;10.10;8.90;;;;;;;16.55;81.26;99502.78;5102074;28;20502;-71
2022/09/08 04:44:38;;;;;;;8.20;7.40;;;;;;;16.58;81.62;99506.97;5101560;28;20451;-63
2022/09/08 04:47:05;;;;;;;9.50;8.20;;;;;;;16.61;81.75;99506.53;5118684;28;20496;-64
2022/09/08 04:49:31;;;;;;;9.67;8.13;;;;;;;16.59;81.36;99508.63;5121904;28;20434;-63
2022/09/08 04:51:58;;;;;;;9.47;8.50;;;;;;;16.63;81.78;99504.50;5119518;28;20512;-63
2022/09/08 04:54:26;;;;;;;9.30;8.40;;;;;;;16.59;81.86;99505.09;5110665;28;20447;-64
2022/09/08 04:56:59;;;;;;;9.53;8.63;;;;;;;16.62;82.00;99513.63;5100617;28;20527;-63
2022/09/08 04:59:27;;;;;;;9.20;8.30;;;;;;;16.73;81.44;99506.81;5103374;28;20479;-64
2022/09/08 05:01:54;;;;;;;8.97;8.10;;;;;;;16.82;80.98;99510.19;5116647;28;20476;-64
2022/09/08 05:04:21;;;;;;;12.63;10.10;;;;;;;16.85;80.71;99516.06;5121881;28;20473;-64
2022/09/08 05:06:47;;;;;;;10.03;9.13;;;;;;;16.80;80.51;99510.41;5120001;28;20477;-64
2022/09/08 05:09:15;;;;;;;11.50;10.40;;;;;;;16.74;80.69;99503.94;5112449;28;20462;-63
2022/09/08 05:11:43;;;;;;;10.63;9.07;;;;;;;16.96;80.00;99506.59;5099356;28;20919;-62
2022/09/08 05:14:10;;;;;;;9.90;8.90;;;;;;;17.03;79.18;99503.88;5101599;28;20513;-61
2022/09/08 05:16:36;;;;;;;11.20;9.70;;;;;;;16.92;79.90;99503.44;5097878;28;20478;-65
2022/09/08 05:19:05;;;;;;;13.20;11.93;;;;;;;16.87;80.38;99496.97;5100470;28;20662;-66
2022/09/08 05:21:33;;;;;;;12.90;10.60;;;;;;;16.78;80.77;99493.56;5100419;28;20543;-66
2022/09/08 05:24:00;;;;;;;12.90;11.60;;;;;;;16.81;80.47;99482.38;5109217;28;20435;-66
2022/09/08 05:26:27;;;;;;;15.00;13.40;;;;;;;16.73;80.83;99491.50;5099570;28;20516;-66
2022/09/08 05:28:56;;;;;;;15.47;13.73;;;;;;;16.65;81.33;99491.63;5104362;28;20531;-65
2022/09/08 05:31:24;;;;;;;14.37;12.87;;;;;;;16.79;80.93;99487.16;5119233;28;20477;-65
2022/09/08 05:33:51;;;;;;;12.57;11.27;;;;;;;16.91;80.22;99485.56;5111844;28;20482;-65
2022/09/08 05:36:21;;;;;;;13.67;12.27;;;;;;;17.08;80.22;99486.06;5099547;28;20476;-66
2022/09/08 05:38:48;;;;;;;11.30;10.10;;;;;;;17.16;80.22;99486.91;5098686;28;20512;-65
2022/09/08 05:41:15;;;;;;;11.23;10.13;;;;;;;17.26;80.53;99495.47;5099513;28;20525;-65
2022/09/08 05:43:42;;;;;;;11.60;10.40;;;;;;;17.40;79.47;99504.47;5099739;28;20481;-66
2022/09/08 05:46:11;;;;;;;13.53;10.90;;;;;;;17.24;80.86;99492.16;5100036;28;20512;-65
2022/09/08 05:48:38;;;;;;;13.83;12.43;;;;;;;17.08;81.69;99507.69;5104104;28;20449;-67
2022/09/08 05:51:09;;;;;;;19.03;16.73;;;;;;;17.35;81.68;99509.63;5103414;28;20474;-66
2022/09/08 05:53:35;;;;;;;16.40;14.70;;;;;;;17.67;79.72;99510.75;5105129;28;20546;-66
2022/09/08 05:56:04;;;;;;;18.73;16.83;;;;;;;17.75;79.59;99515.97;5103288;28;20475;-65
2022/09/08 05:58:31;;;;;;;18.10;16.30;;;;;;;17.58;80.46;99520.91;5084010;28;20463;-66
2022/09/08 06:00:59;;;;;;;18.50;16.60;;;;;;;17.74;80.01;99518.88;5083518;28;20471;-66
2022/09/08 06:03:27;;;;;;;19.57;17.57;;;;;;;17.98;78.96;99514.78;5084146;28;20871;-66
2022/09/08 06:05:54;;;;;;;17.43;15.73;;;;;;;18.01;78.52;99515.19;5083171;28;20504;-66
2022/09/08 06:08:21;;;;;;;18.90;17.10;;;;;;;17.98;78.39;99514.78;5084996;28;20508;-66
2022/09/08 06:10:52;;;;;;;17.63;15.80;;;;;;;18.00;78.62;99507.28;5102476;28;20538;-65
2022/09/08 06:13:21;;;;;;;15.97;14.37;;;;;;;17.99;78.69;99516.44;5103693;28;20482;-65
2022/09/08 06:15:48;;;;;;;17.30;14.03;;;;;;;17.74;78.85;99508.06;5103030;28;20502;-66
2022/09/08 06:18:14;;;;;;;15.40;12.60;;;;;;;17.76;78.84;99519.50;5104033;28;20463;-65
2022/09/08 06:20:46;;;;;;;13.57;12.17;;;;;;;17.72;78.73;99504.72;5103506;28;20494;-65
2022/09/08 06:23:13;;;;;;;13.20;12.00;;;;;;;17.70;78.92;99513.88;5103870;28;20855;-65
2022/09/08 06:25:41;;;;;;;15.43;12.10;;;;;;;17.60;78.54;99513.47;5102926;28;20479;-65
2022/09/08 06:28:18;;;;;;;13.13;10.93;;;;;;;17.81;77.87;99515.16;5103953;28;20503;-65
2022/09/08 06:30:50;;;;;;;12.63;11.10;;;;;;;17.89;77.65;99514.16;5102601;28;20892;-66
2022/09/08 06:33:20;;;;;;;13.83;10.90;;;;;;;18.01;77.40;99519.78;5103880;28;20471;-66
2022/09/08 06:35:54;;;;;;;10.73;9.83;;;;;;;18.12;77.21;99521.03;5102889;28;20511;-67
2022/09/08 06:38:26;;;;;;;12.80;11.60;;;;;;;18.10;78.05;99521.22;5103624;28;20431;-66
2022/09/08 06:40:59;;;;;;;13.03;10.00;;;;;;;18.84;75.96;99519.31;5103012;28;20502;-66
2022/09/08 06:43:30;;;;;;;12.27;11.00;;;;;;;18.73;76.58;99520.78;5103486;28;20451;-66
2022/09/08 06:45:58;;;;;;;10.57;9.53;;;;;;;18.91;75.80;99530.13;5119317;27;20479;-67
2022/09/08 06:48:28;;;;;;;12.37;9.73;;;;;;;19.02;74.99;99526.75;5123410;28;20488;-67
2022/09/08 06:51:14;;;;;;;12.07;8.40;;;;;;;19.07;75.47;99510.69;5123502;27;20504;-67
2022/09/08 06:53:46;;;;;;;9.13;8.07;;;;;;;18.95;75.31;99515.09;5124380;28;20511;-67
2022/09/08 06:56:22;;;;;;;9.90;8.93;;;;;;;19.11;74.79;99513.78;5122584;27;20472;-67
2022/09/08 06:58:53;;;;;;;11.13;8.53;;;;;;;19.18;75.08;99522.72;5123002;28;20446;-67
2022/09/08 07:01:24;;;;;;;13.50;9.10;;;;;;;19.00;75.37;99512.59;5119883;27;20474;-67
2022/09/08 07:04:04;;;;;;;11.03;8.90;;;;;;;19.02;75.77;99509.66;5102669;28;20457;-66
2022/09/08 07:06:34;;;;;;;11.10;9.20;;;;;;;18.94;75.61;99514.28;5102053;28;20507;-66
2022/09/08 07:09:10;;;;;;;12.43;9.00;;;;;;;19.01;75.68;99514.25;5101588;28;20425;-67
2022/09/08 07:11:43;;;;;;;10.17;9.17;;;;;;;18.93;76.07;99517.19;5102229;28;20530;-64
2022/09/08 07:14:28;;;;;;;11.47;10.30;;;;;;;18.97;75.88;99515.72;5102719;28;20460;-63
2022/09/08 07:16:59;;;;;;;11.80;10.70;;;;;;;18.82;76.32;99524.09;5101529;28;20914;-65
2022/09/08 07:19:30;;;;;;;11.87;10.20;;;;;;;18.83;76.35;99538.47;5102679;28;20497;-65
2022/09/08 07:22:03;;;;;;;9.90;8.93;;;;;;;18.96;75.86;99546.56;5102026;28;20528;-66
2022/09/08 07:24:34;;;;;;;11.43;9.50;;;;;;;18.93;76.12;99542.41;5102693;28;20534;-66
2022/09/08 07:27:04;;;;;;;10.07;7.97;;;;;;;19.09;75.73;99551.09;5101507;28;20579;-66
2022/09/08 07:29:34;;;;;;;9.10;8.20;;;;;;;19.03;76.61;99547.38;5102509;28;20447;-66
2022/09/08 07:32:02;;;;;;;10.00;7.80;;;;;;;19.09;76.19;99553.81;5102090;28;22426;-66
2022/09/08 07:34:31;;;;;;;8.17;7.40;;;;;;;19.02;76.37;99571.97;5102300;28;20436;-66
2022/09/08 07:37:05;;;;;;;7.90;7.10;;;;;;;18.91;77.43;99559.91;5101523;28;20902;-66
2022/09/08 07:39:38;;;;;;;9.10;7.70;;;;;;;18.79;77.65;99567.81;5102232;28;20462;-66
2022/09/08 07:42:06;;;;;;;8.13;6.57;;;;;;;18.74;77.90;99573.03;5101258;28;20491;-66
2022/09/08 07:44:34;;;;;;;6.80;6.20;;;;;;;18.72;78.01;99567.00;5101793;28;20480;-65
2022/09/08 07:47:23;;;;;;;6.60;6.00;;;;;;;18.70;78.40;99561.81;5101253;28;20471;-66
2022/09/08 07:49:55;;;;;;;9.10;8.13;;;;;;;18.59;78.63;99567.84;5102374;28;20507;-66
2022/09/08 07:52:29;;;;;;;10.50;6.60;;;;;;;18.58;79.17;99569.72;5101414;28;20483;-66
2022/09/08 07:55:05;;;;;;;7.67;6.93;;;;;;;18.57;79.77;99559.91;5102097;28;20438;-66
2022/09/08 07:57:40;;;;;;;8.37;7.33;;;;;;;18.68;79.66;99568.44;5101135;28;20914;-66
2022/09/08 08:00:11;;;;;;;11.13;7.73;;;;;;;18.67;80.11;99567.63;5100601;28;20599;-68
2022/09/08 08:02:57;;;;;;;10.43;8.10;;;;;;;18.75;80.30;99564.72;5101568;28;20448;-66
2022/09/08 08:05:27;;;;;;;9.53;7.60;;;;;;;18.66;81.14;99571.38;5101370;28;20431;-67
2022/09/08 08:08:05;;;;;;;9.57;7.80;;;;;;;18.71;80.64;99558.03;5101732;28;20426;-67
2022/09/08 08:10:37;;;;;;;9.30;7.93;;;;;;;18.57;81.40;99559.09;5100476;28;20471;-66
2022/09/08 08:13:13;;;;;;;10.27;9.30;;;;;;;18.56;82.44;99557.47;5101147;28;20555;-67
2022/09/08 08:15:45;;;;;;;9.43;8.23;;;;;;;18.75;81.81;99548.47;5100434;27;20494;-67
2022/09/08 08:18:15;;;;;;;10.03;9.07;;;;;;;18.75;81.97;99548.47;5101282;28;20435;-67
2022/09/08 08:20:50;;;;;;;10.37;9.10;;;;;;;18.58;82.27;99552.66;5101162;28;20486;-66
2022/09/08 08:23:39;;;;;;;9.23;7.80;;;;;;;18.73;82.29;99565.94;5101330;28;20448;-67
2022/09/08 08:26:15;;;;;;;10.90;8.67;;;;;;;18.85;82.16;99569.69;5100791;28;20472;-66
2022/09/08 08:28:43;;;;;;;9.67;8.77;;;;;;;18.85;82.84;99572.41;5100973;28;20799;-66
2022/09/08 08:31:24;;;;;;;9.03;7.93;;;;;;;18.86;82.36;99570.56;5100917;28;20491;-66
2022/09/08 08:33:52;;;;;;;9.97;8.97;;;;;;;18.78;83.49;99568.84;5101832;28;20471;-66
2022/09/08 08:36:22;;;;;;;8.60;7.80;;;;;;;18.90;82.87;99563.66;5101002;27;20515;-67
2022/09/08 08:38:53;;;;;;;11.33;9.07;;;;;;;18.89;82.99;99557.41;5101191;28;20801;-67
2022/09/08 08:41:29;;;;;;;9.73;8.60;;;;;;;18.85;83.89;99556.16;5100196;28;20483;-67
2022/09/08 08:44:04;;;;;;;11.03;10.00;;;;;;;18.90;83.53;99560.94;5101025;28;20447;-67
2022/09/08 08:46:46;;;;;;;10.40;9.40;;;;;;;18.92;83.88;99554.28;5100635;28;20478;-67
2022/09/08 08:49:30;;;;;;;11.50;10.40;;;;;;;18.93;83.66;99550.53;5100875;28;20482;-67
2022/09/08 08:52:15;;;;;;;10.90;9.80;;;;;;;18.90;83.57;99545.53;5100009;28;20478;-67
2022/09/08 08:54:59;;;;;;;10.43;9.30;;;;;;;18.81;84.72;99541.34;5100999;28;20824;-66
2022/09/08 08:57:37;;;;;;;10.33;9.27;;;;;;;18.62;84.74;99548.47;5100396;28;20995;-67
2022/09/08 09:00:12;;;;;;;8.50;7.70;;;;;;;18.72;83.60;99546.16;5100506;28;20965;-67
2022/09/08 09:02:53;;;;;;;10.10;9.10;;;;;;;18.50;85.09;99550.16;5086681;28;20973;-67
2022/09/08 09:05:31;;;;;;;8.43;7.63;;;;;;;18.61;84.78;99539.53;5080368;28;20456;-67
2022/09/08 09:08:58;;;;;;;9.10;8.27;;;;;;;18.74;84.44;99546.78;5080639;28;20430;-67
2022/09/08 09:11:57;;;;;;;10.20;9.07;;;;;;;19.09;83.99;99553.81;5080004;28;20500;-66
2022/09/08 09:15:11;;;;;;;10.20;8.70;;;;;;;18.93;83.92;99565.94;5080454;28;20488;-67
2022/09/08 09:17:53;;;;;;;9.40;8.50;;;;;;;18.91;83.97;99562.63;5044386;28;20469;-66
2022/09/08 09:20:28;;;;;;;11.00;9.93;;;;;;;18.98;83.50;99566.97;5060067;28;20456;-67
2022/09/08 09:22:56;;;;;;;9.17;8.37;;;;;;;18.90;83.85;99572.59;5063184;28;20426;-67
2022/09/08 09:25:30;;;;;;;10.10;9.20;;;;;;;18.95;82.98;99566.56;5064051;28;20499;-67
2022/09/08 09:28:15;;;;;;;9.97;9.00;;;;;;;18.69;84.65;99572.84;5064092;28;20454;-68
2022/09/08 09:30:48;;;;;;;10.50;9.60;;;;;;;18.84;84.84;99569.94;5063550;28;20503;-67
2022/09/08 09:33:54;;;;;;;11.37;10.47;;;;;;;18.92;83.66;99564.28;5064291;28;20520;-67
2022/09/08 09:36:38;;;;;;;10.30;9.40;;;;;;;18.64;84.70;99570.75;5056873;28;20491;-67
2022/09/08 09:39:23;;;;;;;11.43;10.33;;;;;;;18.83;84.16;99560.97;5064550;28;20458;-67
2022/09/08 09:42:14;;;;;;;12.73;11.73;;;;;;;18.86;84.33;99565.16;5071363;28;20501;-67
2022/09/08 09:45:03;;;;;;;11.87;10.87;;;;;;;18.83;84.56;99560.97;5083923;28;20455;-66
2022/09/08 09:47:59;;;;;;;12.20;11.10;;;;;;;19.02;83.96;99566.56;5083303;28;20481;-66
2022/09/08 09:50:54;;;;;;;12.80;11.80;;;;;;;18.84;84.46;99559.94;5083658;28;20428;-66
2022/09/08 09:53:56;;;;;;;11.93;10.93;;;;;;;18.90;84.60;99559.06;5084070;28;20556;-66
2022/09/08 09:56:43;;;;;;;12.67;11.67;;;;;;;18.90;84.74;99558.25;5083373;28;20495;-66
2022/09/08 09:59:42;;;;;;;13.27;12.17;;;;;;;18.84;85.24;99559.94;5083668;28;20451;-67
2022/09/08 10:02:35;;;;;;;12.50;11.50;;;;;;;18.93;84.58;99557.81;5082774;28;20495;-66
2022/09/08 10:05:32;;;;;;;12.23;11.17;;;;;;;19.09;84.56;99567.38;5083880;28;20429;-67
2022/09/08 10:08:17;;;;;;;12.50;11.40;;;;;;;19.18;83.63;99564.22;5083228;28;21045;-67
2022/09/08 10:11:01;;;;;;;12.93;11.83;;;;;;;19.16;83.31;99560.03;5083042;28;20483;-67
2022/09/08 10:13:50;;;;;;;11.73;10.83;;;;;;;19.14;83.66;99556.72;5083714;28;20571;-67
2022/09/08 10:16:52;;;;;;;11.20;10.33;;;;;;;19.21;83.28;99552.09;5083081;28;20497;-66
2022/09/08 10:19:44;;;;;;;12.13;11.00;;;;;;;19.22;83.10;99553.78;5082867;28;20590;-66
2022/09/08 10:22:44;;;;;;;12.30;11.40;;;;;;;19.35;83.46;99542.88;5083359;28;20476;-66
2022/09/08 10:25:42;;;;;;;11.03;10.10;;;;;;;19.41;83.45;99538.47;5083253;28;20460;-66
2022/09/08 10:28:41;;;;;;;10.17;9.37;;;;;;;19.78;82.83;99535.19;5083247;28;20464;-67
2022/09/08 10:31:32;;;;;;;11.53;10.43;;;;;;;20.20;81.72;99533.59;5082693;28;20480;-67
2022/09/08 10:34:37;;;;;;;10.83;10.03;;;;;;;20.20;80.10;99522.75;5082212;28;20505;-67
2022/09/08 10:37:10;;;;;;;11.43;10.53;;;;;;;20.21;80.16;99529.84;5034269;28;20472;-66
2022/09/08 10:39:47;;;;;;;10.40;9.60;;;;;;;20.46;78.59;99524.41;5083168;28;20500;-67
2022/09/08 10:42:44;;;;;;;10.00;9.10;;;;;;;20.21;78.77;99527.13;5082703;28;20555;-67
2022/09/08 10:45:24;;;;;;;8.23;7.63;;;;;;;20.34;77.81;99528.06;5078099;28;20462;-67
2022/09/08 10:48:16;;;;;;;9.10;8.40;;;;;;;20.61;76.83;99521.34;5081529;28;20823;-67
2022/09/08 10:50:50;;;;;;;7.77;7.10;;;;;;;21.03;74.46;99518.81;5086099;28;20495;-67
2022/09/08 10:53:41;;;;;;;7.30;6.63;;;;;;;20.86;73.67;99517.78;5102855;28;20472;-68
2022/09/08 10:56:09;;;;;;;7.10;6.50;;;;;;;20.72;73.35;99508.94;5101692;28;20505;-68
2022/09/08 10:59:11;;;;;;;6.93;6.33;;;;;;;20.50;74.53;99513.91;5082157;28;20475;-67
2022/09/08 11:02:07;;;;;;;7.17;6.57;;;;;;;20.55;74.74;99518.69;5082345;28;20509;-67
2022/09/08 11:05:09;;;;;;;6.73;6.23;;;;;;;20.32;75.27;99520.97;5080776;28;21038;-67
2022/09/08 11:07:57;;;;;;;6.73;6.27;;;;;;;20.26;76.60;99524.59;5073339;28;20498;-67
2022/09/08 11:10:35;;;;;;;9.03;7.40;;;;;;;20.19;76.88;99522.97;5082528;28;20459;-67
2022/09/08 11:13:18;;;;;;;8.17;7.57;;;;;;;20.18;78.13;99521.31;5082520;28;20508;-67
2022/09/08 11:16:08;;;;;;;7.97;7.37;;;;;;;19.65;79.44;99517.06;5081966;28;20488;-67
2022/09/08 11:18:49;;;;;;;8.63;7.83;;;;;;;19.75;80.19;99514.75;5081855;28;20451;-67
2022/09/08 11:21:26;;;;;;;9.80;9.00;;;;;;;19.46;80.30;99511.56;5081753;28;20533;-67
2022/09/08 11:24:02;;;;;;;9.17;8.37;;;;;;;19.24;81.94;99524.59;5082731;28;20468;-67
2022/09/08 11:26:46;;;;;;;9.20;8.40;;;;;;;19.38;81.30;99515.34;5081839;28;21088;-67
2022/09/08 11:29:15;;;;;;;9.43;8.73;;;;;;;19.25;82.35;99517.28;5081831;28;20518;-67
2022/09/08 11:31:54;;;;;;;9.90;9.10;;;;;;;19.16;82.13;99517.50;5082051;28;20498;-67
2022/09/08 11:34:32;;;;;;;10.63;9.80;;;;;;;19.31;82.88;99529.97;5082873;28;21012;-67
2022/09/08 11:37:18;;;;;;;10.40;9.50;;;;;;;19.15;83.40;99534.00;5081838;28;20503;-67
2022/09/08 11:39:59;;;;;;;10.70;9.83;;;;;;;19.11;84.19;99535.47;5081880;28;20445;-67
2022/09/08 11:42:51;;;;;;;8.80;7.90;;;;;;;18.75;84.47;99534.91;5081332;28;20499;-67
2022/09/08 11:45:27;;;;;;;9.17;8.37;;;;;;;18.81;84.63;99534.06;5080622;28;20478;-67
2022/09/08 11:48:08;;;;;;;6.30;5.73;;;;;;;18.29;83.87;99541.22;5081463;28;20460;-66
2022/09/08 11:50:37;;;;;;;6.27;4.83;;;;;;;18.34;83.76;99530.59;5081340;28;20456;-67
2022/09/08 11:53:25;;;;;;;6.07;5.47;;;;;;;18.43;83.76;99536.63;5081431;28;20422;-67
2022/09/08 11:56:08;;;;;;;6.20;5.30;;;;;;;18.31;85.40;99541.00;5080615;28;20479;-66
2022/09/08 11:58:45;;;;;;;7.37;6.60;;;;;;;18.24;86.81;99543.72;5081851;28;20433;-67
2022/09/08 12:01:36;;;;;;;7.53;6.63;;;;;;;18.25;86.59;99548.09;5080900;28;20477;-67
2022/09/08 12:04:15;;;;;;;7.70;6.97;;;;;;;18.36;86.52;99552.88;5079278;28;20464;-67
2022/09/08 12:06:58;;;;;;;8.60;7.80;;;;;;;18.15;87.36;99543.09;5080851;28;20477;-67
2022/09/08 12:09:37;;;;;;;7.67;7.07;;;;;;;18.12;87.58;99551.59;5080418;28;20436;-67